createdAt,value
2022-08-27T00:01:04.915Z,100520.19
2022-08-27T00:04:15.488Z,100518.50
2022-08-27T00:07:21.434Z,100513.06
2022-08-27T00:10:27.516Z,100508.72
2022-08-27T00:13:33.172Z,100510.56
2022-08-27T00:16:38.829Z,100511.66
2022-08-27T00:19:44.305Z,100508.44
2022-08-27T00:22:49.977Z,100503.28
2022-08-27T00:25:55.749Z,100505.22
2022-08-27T00:29:01.444Z,100506.31
2022-08-27T00:32:09.177Z,100509.31
2022-08-27T00:35:16.128Z,100510.44
2022-08-27T00:38:22.074Z,100513.19
2022-08-27T00:41:27.938Z,100505.56
2022-08-27T00:44:33.846Z,100508.56
2022-08-27T00:47:39.148Z,100513.19
2022-08-27T00:50:44.985Z,100515.31
2022-08-27T00:53:50.741Z,100510.13
2022-08-27T00:56:56.221Z,100506.91
2022-08-27T01:00:01.778Z,100500.66
2022-08-27T01:03:07.716Z,100507.47
2022-08-27T01:06:16.119Z,100503.66
2022-08-27T01:09:21.948Z,100503.91
2022-08-27T01:12:27.504Z,100505.28
2022-08-27T01:15:33.196Z,100505.84
2022-08-27T01:18:39.523Z,100511.00
2022-08-27T01:21:50.611Z,100507.97
2022-08-27T01:24:56.167Z,100502.53
2022-08-27T01:28:01.914Z,100507.19
2022-08-27T01:31:07.954Z,100498.78
2022-08-27T01:34:14.187Z,100502.53
2022-08-27T01:37:23.866Z,100500.38
2022-08-27T01:40:30.021Z,100502.00
2022-08-27T01:43:35.566Z,100505.56
2022-08-27T01:46:41.647Z,100499.28
2022-08-27T01:49:47.437Z,100493.28
2022-08-27T01:52:56.515Z,100491.41
2022-08-27T01:56:02.528Z,100490.56
2022-08-27T01:59:08.441Z,100483.22
2022-08-27T02:02:14.730Z,100477.50
2022-08-27T02:05:21.405Z,100481.81
2022-08-27T02:08:27.185Z,100476.63
2022-08-27T02:11:32.964Z,100480.94
2022-08-27T02:14:38.657Z,100479.81
2022-08-27T02:17:44.217Z,100480.59
2022-08-27T02:20:50.231Z,100489.81
2022-08-27T02:23:59.048Z,100488.44
2022-08-27T02:27:08.056Z,100486.25
2022-08-27T02:30:14.142Z,100491.41
2022-08-27T02:33:19.595Z,100486.97
2022-08-27T02:36:25.564Z,100489.66
2022-08-27T02:39:30.897Z,100479.06
2022-08-27T02:42:36.803Z,100474.41
2022-08-27T02:45:44.605Z,100477.13
2022-08-27T02:48:50.934Z,100467.31
2022-08-27T02:51:56.803Z,100470.03
2022-08-27T02:55:09.191Z,100467.59
2022-08-27T02:58:17.007Z,100460.81
2022-08-27T03:01:23.231Z,100457.53
2022-08-27T03:04:29.446Z,100449.88
2022-08-27T03:07:35.099Z,100452.59
2022-08-27T03:10:41.271Z,100452.59
2022-08-27T03:13:48.967Z,100449.88
2022-08-27T03:16:54.509Z,100442.56
2022-08-27T03:20:01.702Z,100450.41
2022-08-27T03:23:07.210Z,100439.00
2022-08-27T03:26:12.874Z,100436.00
2022-08-27T03:29:18.519Z,100441.69
2022-08-27T03:32:24.268Z,100446.81
2022-08-27T03:35:30.105Z,100446.50
2022-08-27T03:38:35.889Z,100434.25
2022-08-27T03:41:57.885Z,100447.56
2022-08-27T03:45:04.025Z,100445.59
2022-08-27T03:48:09.980Z,100439.59
2022-08-27T03:51:16.011Z,100444.19
2022-08-27T03:54:21.770Z,100438.19
2022-08-27T03:57:27.192Z,100436.59
2022-08-27T04:00:32.676Z,100429.78
2022-08-27T04:03:38.792Z,100423.53
2022-08-27T04:06:44.404Z,100427.06
2022-08-27T04:09:52.056Z,100435.50
2022-08-27T04:12:57.640Z,100436.28
2022-08-27T04:16:03.375Z,100440.28
2022-08-27T04:19:09.110Z,100444.84
2022-08-27T04:22:15.075Z,100438.94
2022-08-27T04:25:20.710Z,100442.47
2022-08-27T04:28:26.410Z,100444.63
2022-08-27T04:31:32.356Z,100448.47
2022-08-27T04:34:39.191Z,100442.53
2022-08-27T04:37:44.994Z,100433.06
2022-08-27T04:41:08.280Z,100449.06
2022-08-27T04:44:16.100Z,100438.03
2022-08-27T04:47:21.867Z,100434.53
2022-08-27T04:50:27.756Z,100437.28
2022-08-27T04:53:34.641Z,100432.47
2022-08-27T04:56:40.545Z,100421.63
2022-08-27T04:59:47.609Z,100430.94
2022-08-27T05:02:53.050Z,100428.78
2022-08-27T05:05:58.951Z,100419.03
2022-08-27T05:09:05.086Z,100425.59
2022-08-27T05:12:10.886Z,100418.88
2022-08-27T05:15:16.343Z,100433.84
2022-08-27T05:18:22.189Z,100438.19
2022-08-27T05:21:27.855Z,100429.00
2022-08-27T05:24:33.866Z,100425.50
2022-08-27T05:27:39.347Z,100426.91
2022-08-27T05:30:44.900Z,100423.13
2022-08-27T05:33:56.069Z,100417.44
2022-08-27T05:37:04.811Z,100418.81
2022-08-27T05:40:10.541Z,100417.75
2022-08-27T05:43:16.119Z,100412.63
2022-08-27T05:46:21.853Z,100420.53
2022-08-27T05:49:27.304Z,100421.31
2022-08-27T05:52:34.497Z,100418.34
2022-08-27T05:55:41.885Z,100418.91
2022-08-27T05:59:05.221Z,100418.38
2022-08-27T06:02:11.275Z,100418.41
2022-08-27T06:05:16.869Z,100422.47
2022-08-27T06:08:23.146Z,100424.94
2022-08-27T06:11:28.656Z,100421.41
2022-08-27T06:14:34.272Z,100419.75
2022-08-27T06:17:59.797Z,100418.91
2022-08-27T06:21:05.401Z,100427.06
2022-08-27T06:24:12.310Z,100425.41
2022-08-27T06:27:18.185Z,100420.78
2022-08-27T06:30:23.981Z,100418.59
2022-08-27T06:33:33.303Z,100423.22
2022-08-27T06:36:38.781Z,100425.44
2022-08-27T06:39:44.905Z,100423.53
2022-08-27T06:42:50.196Z,100424.91
2022-08-27T06:45:55.450Z,100422.44
2022-08-27T06:49:00.799Z,100422.19
2022-08-27T06:52:06.612Z,100426.22
2022-08-27T06:55:14.996Z,100422.41
2022-08-27T06:58:20.909Z,100426.47
2022-08-27T07:01:27.209Z,100412.88
2022-08-27T07:04:41.094Z,100418.84
2022-08-27T07:07:49.213Z,100424.53
2022-08-27T07:10:54.591Z,100429.94
2022-08-27T07:14:00.542Z,100422.53
2022-08-27T07:20:51.189Z,100420.28
2022-08-27T07:23:59.031Z,100427.31
2022-08-27T07:27:05.656Z,100423.47
2022-08-27T07:30:17.816Z,100431.91
2022-08-27T07:33:26.200Z,100431.88
2022-08-27T07:39:54.833Z,100428.88
2022-08-27T07:43:18.213Z,100431.81
2022-08-27T07:46:23.672Z,100429.91
2022-08-27T07:49:29.426Z,100435.91
2022-08-27T07:52:41.959Z,100439.19
2022-08-27T07:55:47.594Z,100433.19
2022-08-27T07:58:54.305Z,100438.88
2022-08-27T08:01:59.975Z,100435.78
2022-08-27T08:05:05.754Z,100431.72
2022-08-27T08:08:11.789Z,100439.47
2022-08-27T08:11:17.975Z,100439.91
2022-08-27T08:14:31.141Z,100437.97
2022-08-27T08:17:38.542Z,100441.47
2022-08-27T08:20:57.645Z,100436.78
2022-08-27T08:27:30.454Z,100435.00
2022-08-27T08:30:36.126Z,100436.66
2022-08-27T08:33:41.842Z,100439.56
2022-08-27T08:36:52.439Z,100441.47
2022-08-27T08:40:00.767Z,100442.44
2022-08-27T08:43:06.338Z,100450.59
2022-08-27T08:46:12.831Z,100459.56
2022-08-27T08:49:18.494Z,100453.88
2022-08-27T08:52:26.964Z,100454.97
2022-08-27T08:55:37.673Z,100453.22
2022-08-27T08:58:43.241Z,100449.03
2022-08-27T09:01:49.775Z,100457.38
2022-08-27T09:04:55.635Z,100459.16
2022-08-27T09:08:41.090Z,100454.06
2022-08-27T09:11:45.868Z,100448.31
2022-08-27T09:14:51.666Z,100455.78
2022-08-27T09:17:59.878Z,100464.34
2022-08-27T09:21:08.911Z,100462.69
2022-08-27T09:24:15.389Z,100461.97
2022-08-27T09:27:20.983Z,100457.59
2022-08-27T09:30:30.546Z,100459.66
2022-08-27T09:33:53.570Z,100457.41
2022-08-27T09:37:06.053Z,100448.91
2022-08-27T09:40:13.770Z,100448.38
2022-08-27T09:43:28.825Z,100440.44
2022-08-27T09:46:34.584Z,100437.00
2022-08-27T09:49:42.549Z,100438.56
2022-08-27T09:52:49.408Z,100434.50
2022-08-27T09:55:55.334Z,100436.44
2022-08-27T09:59:01.817Z,100437.97
2022-08-27T10:02:09.138Z,100437.66
2022-08-27T10:05:17.716Z,100448.63
2022-08-27T10:08:23.603Z,100438.78
2022-08-27T10:11:29.134Z,100443.59
2022-08-27T10:14:34.756Z,100444.25
2022-08-27T10:17:40.572Z,100443.66
2022-08-27T10:20:46.201Z,100435.31
2022-08-27T10:23:52.112Z,100436.63
2022-08-27T10:27:14.681Z,100437.94
2022-08-27T10:30:20.461Z,100442.22
2022-08-27T10:33:26.870Z,100439.06
2022-08-27T10:36:32.440Z,100430.94
2022-08-27T10:39:38.197Z,100428.41
2022-08-27T10:42:43.912Z,100427.91
2022-08-27T10:45:51.036Z,100425.34
2022-08-27T10:48:56.772Z,100428.41
2022-08-27T10:52:05.325Z,100425.03
2022-08-27T10:55:13.683Z,100427.97
2022-08-27T10:58:19.322Z,100428.38
2022-08-27T11:01:24.721Z,100428.22
2022-08-27T11:04:31.538Z,100430.00
2022-08-27T11:07:37.205Z,100430.38
2022-08-27T11:10:45.593Z,100438.19
2022-08-27T11:14:04.624Z,100439.47
2022-08-27T11:17:10.395Z,100438.09
2022-08-27T11:20:15.843Z,100442.94
2022-08-27T11:23:21.691Z,100444.59
2022-08-27T11:26:27.418Z,100439.28
2022-08-27T11:29:33.515Z,100446.81
2022-08-27T11:32:40.072Z,100449.22
2022-08-27T11:35:45.721Z,100445.16
2022-08-27T11:38:51.988Z,100443.31
2022-08-27T11:41:57.809Z,100445.03
2022-08-27T11:45:11.915Z,100445.69
2022-08-27T11:48:18.422Z,100452.97
2022-08-27T11:51:24.028Z,100450.75
2022-08-27T11:54:29.748Z,100450.13
2022-08-27T11:57:35.608Z,100444.66
2022-08-27T12:00:41.349Z,100444.91
2022-08-27T12:03:46.984Z,100448.09
2022-08-27T12:06:53.289Z,100444.16
2022-08-27T12:09:58.929Z,100433.44
2022-08-27T12:13:04.854Z,100435.75
2022-08-27T12:16:12.467Z,100427.84
2022-08-27T12:19:18.311Z,100429.41
2022-08-27T12:22:24.022Z,100434.13
2022-08-27T12:25:29.676Z,100429.03
2022-08-27T12:28:35.630Z,100422.88
2022-08-27T12:31:40.988Z,100421.47
2022-08-27T12:34:46.663Z,100412.81
2022-08-27T12:37:54.017Z,100414.81
2022-08-27T12:41:08.936Z,100416.16
2022-08-27T12:44:14.634Z,100421.97
2022-08-27T12:47:20.451Z,100423.81
2022-08-27T12:50:26.665Z,100409.25
2022-08-27T12:53:32.529Z,100409.22
2022-08-27T12:56:38.394Z,100415.50
2022-08-27T12:59:44.108Z,100412.25
2022-08-27T13:02:50.119Z,100406.50
2022-08-27T13:05:57.688Z,100401.69
2022-08-27T13:09:03.531Z,100405.28
2022-08-27T13:12:09.173Z,100398.56
2022-08-27T13:15:15.833Z,100403.44
2022-08-27T13:18:21.632Z,100393.47
2022-08-27T13:21:27.680Z,100394.69
2022-08-27T13:24:33.680Z,100393.56
2022-08-27T13:27:39.526Z,100393.47
2022-08-27T13:30:45.101Z,100392.19
2022-08-27T13:33:51.454Z,100382.41
2022-08-27T13:36:57.748Z,100383.66
2022-08-27T13:40:03.830Z,100381.03
2022-08-27T13:43:09.647Z,100377.19
2022-08-27T13:46:15.379Z,100374.94
2022-08-27T13:49:22.075Z,100378.38
2022-08-27T13:55:51.513Z,100371.63
2022-08-27T13:58:59.096Z,100370.97
2022-08-27T14:02:05.209Z,100367.34
2022-08-27T14:05:11.425Z,100371.63
2022-08-27T14:08:18.465Z,100372.28
2022-08-27T14:11:24.617Z,100364.38
2022-08-27T14:14:30.773Z,100355.03
2022-08-27T14:17:37.270Z,100360.66
2022-08-27T14:20:42.988Z,100366.44
2022-08-27T14:23:49.243Z,100364.81
2022-08-27T14:26:56.367Z,100365.19
2022-08-27T14:30:02.450Z,100359.19
2022-08-27T14:33:08.293Z,100366.00
2022-08-27T14:36:13.900Z,100358.59
2022-08-27T14:39:20.166Z,100367.41
2022-08-27T14:42:32.035Z,100361.13
2022-08-27T14:45:37.954Z,100364.78
2022-08-27T14:48:51.471Z,100363.69
2022-08-27T14:51:57.686Z,100370.44
2022-08-27T14:55:05.902Z,100371.34
2022-08-27T14:58:14.557Z,100363.91
2022-08-27T15:01:20.633Z,100370.56
2022-08-27T15:04:25.879Z,100372.41
2022-08-27T15:07:32.933Z,100371.91
2022-08-27T15:10:38.433Z,100376.25
2022-08-27T15:13:44.604Z,100369.59
2022-08-27T15:16:50.427Z,100379.53
2022-08-27T15:19:56.123Z,100383.06
2022-08-27T15:23:01.533Z,100367.72
2022-08-27T15:26:08.516Z,100364.56
2022-08-27T15:29:14.117Z,100369.53
2022-08-27T15:32:19.997Z,100379.44
2022-08-27T15:35:28.316Z,100377.22
2022-08-27T15:38:34.530Z,100371.75
2022-08-27T15:42:11.435Z,100364.94
2022-08-27T15:45:08.604Z,100373.16
2022-08-27T15:48:14.855Z,100390.25
2022-08-27T15:51:20.867Z,100387.59
2022-08-27T15:54:27.142Z,100382.09
2022-08-27T15:57:32.914Z,100373.31
2022-08-27T16:00:38.786Z,100367.28
2022-08-27T16:03:44.051Z,100358.47
2022-08-27T16:06:49.910Z,100348.63
2022-08-27T16:09:55.821Z,100355.56
2022-08-27T16:13:01.960Z,100347.13
2022-08-27T16:16:08.557Z,100341.66
2022-08-27T16:19:16.716Z,100332.72
2022-08-27T16:22:23.356Z,100343.84
2022-08-27T16:25:29.135Z,100343.84
2022-08-27T16:28:35.560Z,100351.63
2022-08-27T16:31:41.493Z,100351.94
2022-08-27T16:34:47.490Z,100348.72
2022-08-27T16:38:02.273Z,100351.22
2022-08-27T16:41:08.155Z,100358.06
2022-08-27T16:44:14.450Z,100357.56
2022-08-27T16:47:20.281Z,100366.41
2022-08-27T16:50:34.453Z,100371.38
2022-08-27T16:53:39.863Z,100369.94
2022-08-27T16:56:46.280Z,100362.38
2022-08-27T16:59:53.242Z,100366.53
2022-08-27T17:02:59.102Z,100390.28
2022-08-27T17:06:08.566Z,100394.38
2022-08-27T17:09:16.706Z,100396.38
2022-08-27T17:12:28.528Z,100402.75
2022-08-27T17:15:35.828Z,100415.06
2022-08-27T17:18:42.299Z,100430.09
2022-08-27T17:21:48.123Z,100433.72
2022-08-27T17:24:54.009Z,100438.50
2022-08-27T17:28:00.588Z,100419.88
2022-08-27T17:31:06.485Z,100399.81
2022-08-27T17:34:12.560Z,100386.81
2022-08-27T17:37:18.949Z,100392.28
2022-08-27T17:40:25.088Z,100410.44
2022-08-27T17:43:31.414Z,100412.88
2022-08-27T17:46:37.720Z,100444.34
2022-08-27T17:49:43.030Z,100467.69
2022-08-27T17:52:48.340Z,100495.81
2022-08-27T17:55:54.292Z,100495.47
2022-08-27T17:59:00.103Z,100467.31
2022-08-27T18:02:06.023Z,100463.03
2022-08-27T18:05:13.360Z,100476.94
2022-08-27T18:08:20.578Z,100478.50
2022-08-27T18:11:26.933Z,100482.59
2022-08-27T18:14:32.329Z,100479.81
2022-08-27T18:17:40.852Z,100467.63
2022-08-27T18:20:49.423Z,100457.66
2022-08-27T18:24:10.985Z,100442.78
2022-08-27T18:27:16.647Z,100444.19
2022-08-27T18:30:22.392Z,100450.47
2022-08-27T18:33:28.180Z,100443.13
2022-08-27T18:36:33.483Z,100451.22
2022-08-27T18:39:39.770Z,100440.59
2022-08-27T18:42:45.238Z,100427.50
2022-08-27T18:45:51.277Z,100428.63
2022-08-27T18:49:16.902Z,100431.38
2022-08-27T18:52:22.301Z,100444.97
2022-08-27T18:55:29.367Z,100446.03
2022-08-27T18:58:34.992Z,100440.50
2022-08-27T19:01:41.891Z,100449.88
2022-08-27T19:04:51.727Z,100456.13
2022-08-27T19:07:58.391Z,100445.28
2022-08-27T19:11:09.687Z,100432.91
2022-08-27T19:14:16.572Z,100443.22
2022-08-27T19:17:22.438Z,100438.28
2022-08-27T19:20:28.731Z,100440.50
2022-08-27T19:23:34.404Z,100444.34
2022-08-27T19:26:40.322Z,100432.41
2022-08-27T19:29:45.813Z,100427.50
2022-08-27T19:32:57.115Z,100456.34
2022-08-27T19:36:15.604Z,100464.19
2022-08-27T19:39:21.544Z,100457.38
2022-08-27T19:42:28.912Z,100445.88
2022-08-27T19:45:34.456Z,100436.22
2022-08-27T19:48:40.169Z,100433.78
2022-08-27T19:51:45.826Z,100396.22
2022-08-27T19:55:12.663Z,100398.81
2022-08-27T19:58:17.413Z,100409.00
2022-08-27T20:01:23.513Z,100404.03
2022-08-27T20:04:33.496Z,100416.16
2022-08-27T20:07:40.533Z,100414.22
2022-08-27T20:10:46.163Z,100423.47
2022-08-27T20:13:51.818Z,100430.22
2022-08-27T20:16:57.640Z,100449.22
2022-08-27T20:20:04.980Z,100437.06
2022-08-27T20:23:10.645Z,100426.75
2022-08-27T20:26:16.515Z,100406.38
2022-08-27T20:29:22.400Z,100402.78
2022-08-27T20:32:38.148Z,100416.94
2022-08-27T20:35:44.233Z,100421.91
2022-08-27T20:38:49.774Z,100420.94
2022-08-27T20:41:56.026Z,100423.69
2022-08-27T20:45:01.399Z,100441.97
2022-08-27T20:48:07.139Z,100456.09
2022-08-27T20:51:12.926Z,100464.78
2022-08-27T20:54:19.278Z,100465.06
2022-08-27T20:57:26.638Z,100483.56
2022-08-27T21:00:31.065Z,100475.97
2022-08-27T21:03:37.339Z,100482.75
2022-08-27T21:06:43.205Z,100469.41
2022-08-27T21:09:56.585Z,100472.38
2022-08-27T21:13:05.735Z,100479.13
2022-08-27T21:16:11.522Z,100479.13
2022-08-27T21:19:17.110Z,100470.69
2022-08-27T21:22:22.762Z,100472.00
2022-08-27T21:25:28.692Z,100479.88
2022-08-27T21:28:34.438Z,100483.94
2022-08-27T21:31:40.310Z,100457.91
2022-08-27T21:34:45.697Z,100447.56
2022-08-27T21:37:51.211Z,100439.41
2022-08-27T21:40:56.770Z,100447.00
2022-08-27T21:44:02.747Z,100431.78
2022-08-27T21:47:08.804Z,100425.28
2022-08-27T21:50:14.946Z,100431.69
2022-08-27T21:53:20.644Z,100428.47
2022-08-27T21:56:26.507Z,100433.59
2022-08-27T21:59:32.297Z,100428.25
2022-08-27T22:02:40.156Z,100425.28
2022-08-27T22:05:46.185Z,100435.56
2022-08-27T22:08:52.001Z,100437.38
2022-08-27T22:11:58.114Z,100445.84
2022-08-27T22:15:05.633Z,100443.78
2022-08-27T22:18:11.228Z,100436.31
2022-08-27T22:21:16.943Z,100427.63
2022-08-27T22:24:22.613Z,100438.69
2022-08-27T22:27:29.400Z,100449.50
2022-08-27T22:30:34.959Z,100465.84
2022-08-27T22:33:40.754Z,100459.31
2022-08-27T22:36:47.904Z,100455.72
2022-08-27T22:39:54.074Z,100452.63
2022-08-27T22:43:00.799Z,100443.41
2022-08-27T22:46:06.689Z,100433.63
2022-08-27T22:49:11.804Z,100417.66
2022-08-27T22:52:17.756Z,100436.09
2022-08-27T22:55:24.889Z,100466.91
2022-08-27T22:58:31.377Z,100478.50
2022-08-27T23:01:38.658Z,100472.25
2022-08-27T23:04:54.928Z,100491.94
2022-08-27T23:08:05.317Z,100490.16
2022-08-27T23:11:10.967Z,100489.94
2022-08-27T23:14:16.880Z,100528.06
2022-08-27T23:17:24.181Z,100496.69
2022-08-27T23:20:32.690Z,100461.50
2022-08-27T23:23:38.314Z,100491.25
2022-08-27T23:27:01.457Z,100506.06
2022-08-27T23:30:08.150Z,100482.44
2022-08-27T23:33:13.964Z,100478.84
2022-08-27T23:36:19.531Z,100471.19
2022-08-27T23:39:25.215Z,100465.75
2022-08-27T23:42:30.931Z,100464.19
2022-08-27T23:45:40.489Z,100453.09
2022-08-27T23:48:46.655Z,100440.53
2022-08-27T23:51:51.943Z,100439.84
2022-08-27T23:54:58.050Z,100444.97
2022-08-27T23:58:04.090Z,100452.84
